6S0

Big Timber Airport

Big Timber, Montana, USA
METAR K6S0 172315Z AUTO 26019G24KT 10SM CLR M04/M08 A3023 RMK A01
Observed Flight Rules
Nov-17 @ 23:15 UTC (23 minutes ago) Visual Flight Rules
Wind Visibility Clouds
260° at 19 knots
 Gusting to 24 knots
10 miles
  • Clear skies
Temperatures Readings
Current -4°C / 25°F
Dewpoint -8°C / 18°F
Humidity 74%
Altimeter 30.23" Hg
Pressure 1024 hPa
Elevation 1363
METAR K6S0 172315Z AUTO 26019G24KT 10SM CLR M04/M08 A3023 RMK A01
Observed Flight Rules
Nov-17 @ 23:15 UTC
(23 minutes ago)
VFR
Wind Visibility
260° at 19 knots
 Gusting to 24 knots
10 miles
Clouds
  • Clear skies
Temperature Dewpoint
-4°C / 25°F -8°C / 18°F
Humidity Altimeter Pressure
74% 30.23" Hg 1024 hPa